Time;durP1;ratioP1;P1;durP2;ratioP2;P2;SDS_P1;SDS_P2;PMS_P1;PMS_P2;Temp;Humidity;BMP_temperature;BMP_pressure;BME280_temperature;BME280_humidity;BME280_pressure;Samples;Min_cycle;Max_cycle;Signal;HPM_P1;HPM_P2
2023/12/17 00:01:06;;;;;;;18.70;10.90;;;2.00;99.90;;;;;;4965987;28;20087;-89
2023/12/17 00:03:31;;;;;;;15.18;11.00;;;2.00;99.90;;;;;;4963827;28;20035;-90
2023/12/17 00:05:57;;;;;;;13.00;9.82;;;2.00;99.90;;;;;;4959758;28;20069;-90
2023/12/17 00:08:22;;;;;;;15.80;10.48;;;1.90;99.90;;;;;;4958296;29;20027;-89
2023/12/17 00:10:52;;;;;;;13.77;8.98;;;1.90;99.90;;;;;;4970809;28;20028;-91
2023/12/17 00:13:18;;;;;;;15.85;7.88;;;1.90;99.90;;;;;;4963205;28;20035;-90
2023/12/17 00:15:44;;;;;;;12.02;8.38;;;1.80;99.90;;;;;;4963192;28;20023;-90
2023/12/17 00:18:12;;;;;;;14.23;9.70;;;1.90;99.90;;;;;;4963207;28;20217;-90
2023/12/17 00:20:38;;;;;;;14.75;8.00;;;1.90;99.90;;;;;;4956278;28;20034;-91
2023/12/17 00:23:04;;;;;;;11.98;8.10;;;1.90;99.90;;;;;;4963414;28;20035;-89
2023/12/17 00:25:30;;;;;;;12.70;8.20;;;1.80;99.90;;;;;;4963238;28;20031;-89
2023/12/17 00:27:56;;;;;;;17.23;8.88;;;1.90;99.90;;;;;;4964228;28;20023;-90
2023/12/17 00:30:22;;;;;;;12.07;9.38;;;1.80;99.90;;;;;;4963454;28;20034;-90
2023/12/17 00:32:48;;;;;;;14.07;8.88;;;1.70;99.90;;;;;;4973525;28;20045;-90
2023/12/17 00:35:13;;;;;;;15.00;8.50;;;1.70;99.90;;;;;;4964114;28;20086;-89
2023/12/17 00:37:39;;;;;;;14.65;12.02;;;1.70;99.90;;;;;;4965964;28;20475;-88
2023/12/17 00:40:06;;;;;;;15.43;8.98;;;1.70;99.90;;;;;;4970498;28;20023;-89
2023/12/17 00:42:32;;;;;;;17.65;10.23;;;1.60;99.90;;;;;;4964003;28;20031;-90
2023/12/17 00:44:58;;;;;;;16.02;10.38;;;1.60;99.90;;;;;;4962920;28;20099;-89
2023/12/17 00:47:23;;;;;;;13.32;10.32;;;1.50;99.90;;;;;;4963223;28;20031;-90
2023/12/17 00:49:49;;;;;;;16.13;8.73;;;1.50;99.90;;;;;;4967896;28;20026;-90
2023/12/17 00:52:15;;;;;;;14.80;9.45;;;1.50;99.90;;;;;;4971841;28;20027;-89
2023/12/17 00:54:40;;;;;;;14.52;10.40;;;1.50;99.90;;;;;;4971255;28;20592;-89
2023/12/17 00:57:06;;;;;;;18.17;10.07;;;1.50;99.90;;;;;;4961544;28;20039;-90
2023/12/17 00:59:32;;;;;;;12.05;8.73;;;1.50;99.90;;;;;;4961886;28;20023;-91
2023/12/17 01:01:57;;;;;;;15.25;8.07;;;1.50;99.90;;;;;;4958793;28;20023;-90
2023/12/17 01:04:23;;;;;;;12.95;9.18;;;1.40;99.90;;;;;;4969789;28;20031;-91
2023/12/17 01:06:48;;;;;;;18.05;10.75;;;1.40;99.90;;;;;;4967582;28;20095;-91
2023/12/17 01:09:14;;;;;;;11.95;8.38;;;1.40;99.90;;;;;;4960399;28;20023;-91
2023/12/17 01:11:42;;;;;;;13.52;8.93;;;1.40;99.90;;;;;;4965501;28;20537;-92
2023/12/17 01:14:08;;;;;;;13.40;8.27;;;1.40;99.90;;;;;;4960345;28;20023;-91
2023/12/17 01:16:34;;;;;;;13.57;8.32;;;1.40;99.90;;;;;;4962577;28;20024;-89
2023/12/17 01:18:59;;;;;;;14.52;8.35;;;1.40;99.90;;;;;;4963346;28;20027;-91
2023/12/17 01:21:28;;;;;;;10.25;7.63;;;1.40;99.90;;;;;;4971575;28;20027;-90
2023/12/17 01:23:54;;;;;;;11.85;8.00;;;1.30;99.90;;;;;;4970567;28;20034;-90
2023/12/17 01:26:22;;;;;;;11.65;7.55;;;1.30;99.90;;;;;;4957614;28;20055;-92
2023/12/17 01:28:49;;;;;;;10.23;6.00;;;1.30;99.90;;;;;;4966671;28;20027;-92
2023/12/17 01:31:14;;;;;;;11.15;8.23;;;1.30;99.90;;;;;;4967800;28;20031;-90
2023/12/17 01:33:46;;;;;;;8.98;6.13;;;1.30;99.90;;;;;;4971284;28;20102;-91
2023/12/17 01:36:12;;;;;;;12.13;6.10;;;1.30;99.90;;;;;;4969728;28;20028;-88
2023/12/17 01:38:37;;;;;;;13.07;7.00;;;1.30;99.90;;;;;;4962884;28;20071;-90
2023/12/17 01:41:03;;;;;;;9.40;7.35;;;1.40;99.90;;;;;;4965512;28;20054;-90
2023/12/17 01:43:29;;;;;;;10.77;6.85;;;1.40;99.90;;;;;;4945706;29;20031;-90
2023/12/17 01:45:55;;;;;;;9.13;6.10;;;1.30;99.90;;;;;;4961354;28;20035;-90
2023/12/17 01:48:21;;;;;;;11.40;8.13;;;1.40;99.90;;;;;;4964015;28;20438;-91
2023/12/17 01:50:48;;;;;;;13.93;8.50;;;1.40;99.90;;;;;;4968511;28;20091;-90
2023/12/17 01:53:15;;;;;;;10.63;7.68;;;1.40;99.90;;;;;;4947683;28;20032;-90
2023/12/17 01:55:42;;;;;;;8.38;5.93;;;1.40;99.90;;;;;;4958449;28;20019;-90
2023/12/17 01:58:12;;;;;;;12.40;6.18;;;1.30;99.90;;;;;;4962193;28;20049;-90
2023/12/17 02:00:38;;;;;;;10.48;6.70;;;1.40;99.90;;;;;;4960073;28;20059;-91
2023/12/17 02:03:04;;;;;;;9.00;6.30;;;1.40;99.90;;;;;;4942371;29;20032;-91
2023/12/17 02:05:33;;;;;;;9.15;6.88;;;1.40;99.90;;;;;;4961702;28;20046;-92
2023/12/17 02:08:00;;;;;;;8.77;5.97;;;1.40;99.90;;;;;;4944234;29;20023;-93
2023/12/17 02:10:26;;;;;;;8.73;6.13;;;1.40;99.90;;;;;;4955564;28;20038;-91
2023/12/17 02:12:52;;;;;;;9.10;5.55;;;1.40;99.90;;;;;;4962896;28;20027;-92
2023/12/17 02:15:18;;;;;;;7.60;6.07;;;1.30;99.90;;;;;;4963702;28;20030;-90
2023/12/17 02:17:51;;;;;;;12.20;6.60;;;1.40;99.90;;;;;;4962260;28;20023;-91
2023/12/17 02:20:17;;;;;;;9.45;5.53;;;1.40;99.90;;;;;;4963524;28;20037;-92
2023/12/17 02:22:45;;;;;;;6.72;4.65;;;1.40;99.90;;;;;;4964348;28;20027;-91
2023/12/17 02:25:14;;;;;;;10.10;6.55;;;1.30;99.90;;;;;;4972798;28;20027;-88
2023/12/17 02:27:41;;;;;;;9.30;5.90;;;1.40;99.90;;;;;;4968081;28;20035;-90
2023/12/17 02:30:08;;;;;;;9.57;6.32;;;1.30;99.90;;;;;;4967853;28;20043;-91
2023/12/17 02:32:33;;;;;;;9.98;6.95;;;1.30;99.90;;;;;;4969447;28;20301;-90
2023/12/17 02:34:59;;;;;;;9.75;6.53;;;1.40;99.90;;;;;;4950276;29;20035;-89
2023/12/17 02:37:24;;;;;;;11.80;9.13;;;1.40;99.90;;;;;;4965563;28;20390;-91
2023/12/17 02:39:50;;;;;;;11.88;7.93;;;1.30;99.90;;;;;;4970141;28;20034;-89
2023/12/17 02:42:19;;;;;;;9.02;6.20;;;1.40;99.90;;;;;;4963203;28;20075;-89
2023/12/17 02:44:45;;;;;;;8.38;5.50;;;1.40;99.90;;;;;;4967088;28;20050;-91
2023/12/17 02:47:10;;;;;;;9.73;5.97;;;1.30;99.90;;;;;;4973691;28;20023;-91
2023/12/17 02:49:36;;;;;;;8.52;6.15;;;1.20;99.90;;;;;;4970311;28;20018;-90
2023/12/17 02:52:02;;;;;;;7.38;5.03;;;1.30;99.90;;;;;;4945571;29;20028;-92
2023/12/17 02:54:29;;;;;;;9.00;5.80;;;1.20;99.90;;;;;;4968885;28;20027;-91
2023/12/17 02:56:55;;;;;;;12.73;7.15;;;1.10;99.90;;;;;;4966126;28;20075;-90
2023/12/17 02:59:20;;;;;;;8.48;7.57;;;1.10;99.90;;;;;;4966182;28;20207;-88
2023/12/17 03:01:46;;;;;;;10.32;5.80;;;1.10;99.90;;;;;;4975571;28;20019;-90
2023/12/17 03:04:13;;;;;;;9.80;6.30;;;1.00;99.90;;;;;;4967096;28;20291;-90
2023/12/17 03:06:38;;;;;;;10.48;5.85;;;1.00;99.90;;;;;;4950483;29;20051;-91
2023/12/17 03:09:05;;;;;;;9.93;5.22;;;0.90;99.90;;;;;;4964888;28;20031;-91
2023/12/17 03:11:34;;;;;;;9.20;6.07;;;0.90;99.90;;;;;;4960324;28;20107;-90
2023/12/17 03:13:59;;;;;;;9.95;5.95;;;0.90;99.90;;;;;;4959686;28;20023;-90
2023/12/17 03:16:27;;;;;;;7.65;6.22;;;0.90;99.90;;;;;;4972114;28;20025;-90
2023/12/17 03:18:52;;;;;;;10.55;6.47;;;0.90;99.90;;;;;;4967298;28;20058;-88
2023/12/17 03:21:19;;;;;;;11.88;6.90;;;0.80;99.90;;;;;;4958328;28;20494;-90
2023/12/17 03:23:45;;;;;;;10.65;6.68;;;0.90;99.90;;;;;;4949753;29;20035;-89
2023/12/17 03:26:10;;;;;;;12.82;6.05;;;0.90;99.90;;;;;;4966379;28;20083;-90
2023/12/17 03:28:36;;;;;;;10.38;6.55;;;0.90;99.90;;;;;;4966087;28;20046;-89
2023/12/17 03:31:02;;;;;;;9.07;8.18;;;0.80;99.90;;;;;;4969322;28;20496;-90
2023/12/17 03:33:27;;;;;;;12.20;7.57;;;0.90;99.90;;;;;;4965512;28;20027;-90
2023/12/17 03:35:53;;;;;;;9.68;6.57;;;0.90;99.90;;;;;;4945900;29;20024;-92
2023/12/17 03:38:19;;;;;;;9.90;6.72;;;0.90;99.90;;;;;;4965214;28;20039;-91
2023/12/17 03:40:44;;;;;;;9.55;7.10;;;0.90;99.90;;;;;;4981419;28;20027;-89
2023/12/17 03:43:13;;;;;;;12.20;7.20;;;0.90;99.90;;;;;;4965802;28;20038;-91
2023/12/17 03:45:39;;;;;;;11.20;7.22;;;0.90;99.90;;;;;;4965379;28;20027;-93
2023/12/17 03:48:06;;;;;;;12.90;7.82;;;0.90;99.90;;;;;;4966698;28;20046;-89
2023/12/17 03:50:32;;;;;;;11.57;6.88;;;0.80;99.90;;;;;;4970840;28;20027;-89
2023/12/17 03:52:57;;;;;;;10.90;6.60;;;0.80;99.90;;;;;;4963250;28;20031;-92
2023/12/17 03:55:23;;;;;;;11.73;7.88;;;0.80;99.90;;;;;;4942245;29;20032;-90
2023/12/17 03:57:48;;;;;;;13.68;10.07;;;0.80;99.90;;;;;;4962451;28;20470;-90
2023/12/17 04:00:15;;;;;;;14.55;7.05;;;0.70;99.90;;;;;;4970210;28;20035;-91
2023/12/17 04:02:41;;;;;;;12.98;8.45;;;0.80;99.90;;;;;;4948357;28;20115;-89
2023/12/17 04:05:08;;;;;;;14.40;8.68;;;0.80;99.90;;;;;;4960066;28;20093;-89
2023/12/17 04:07:33;;;;;;;12.23;7.97;;;0.70;99.90;;;;;;4967599;28;20019;-90
2023/12/17 04:10:06;;;;;;;15.38;8.57;;;0.80;99.90;;;;;;4954841;29;20058;-90
2023/12/17 04:12:32;;;;;;;15.40;9.18;;;0.70;99.90;;;;;;4945032;29;20028;-90
2023/12/17 04:14:57;;;;;;;16.83;10.02;;;0.70;99.90;;;;;;4964962;28;20136;-89
2023/12/17 04:17:23;;;;;;;14.88;8.27;;;0.70;99.90;;;;;;4941748;29;20050;-89
2023/12/17 04:19:50;;;;;;;13.80;8.60;;;0.70;99.90;;;;;;4952649;28;20033;-90
2023/12/17 04:22:16;;;;;;;14.60;10.88;;;0.70;99.90;;;;;;4972247;28;20027;-90
2023/12/17 04:24:42;;;;;;;17.77;7.95;;;0.70;99.90;;;;;;4972667;28;20053;-88
2023/12/17 04:27:08;;;;;;;16.65;9.90;;;0.60;99.90;;;;;;4964813;28;20030;-90
2023/12/17 04:29:33;;;;;;;14.05;8.77;;;0.70;99.90;;;;;;4944587;29;20039;-91
2023/12/17 04:31:59;;;;;;;16.42;9.60;;;0.70;99.90;;;;;;4961256;28;20019;-90
2023/12/17 04:34:27;;;;;;;13.05;8.93;;;0.70;99.90;;;;;;4965622;28;20027;-90
2023/12/17 04:36:59;;;;;;;17.73;9.15;;;0.80;99.90;;;;;;4964544;28;20501;-91
2023/12/17 04:39:28;;;;;;;14.18;9.68;;;0.80;99.90;;;;;;4967482;28;20042;-89
2023/12/17 04:41:54;;;;;;;16.23;9.73;;;0.80;99.90;;;;;;4969234;28;20035;-91
2023/12/17 04:44:22;;;;;;;13.48;10.20;;;0.80;99.90;;;;;;4946037;28;20035;-90
2023/12/17 04:46:48;;;;;;;15.55;9.95;;;0.80;99.90;;;;;;4957731;28;20033;-90
2023/12/17 04:49:14;;;;;;;14.90;10.05;;;0.80;99.90;;;;;;4977575;28;20035;-89
2023/12/17 04:51:40;;;;;;;16.85;10.23;;;0.80;99.90;;;;;;4966836;28;20038;-89
2023/12/17 04:54:05;;;;;;;16.65;11.20;;;0.80;99.90;;;;;;4971308;28;20062;-90
2023/12/17 04:56:31;;;;;;;15.70;10.27;;;0.80;99.90;;;;;;4965809;28;20027;-90
2023/12/17 04:58:56;;;;;;;17.77;11.40;;;0.70;99.90;;;;;;4965033;28;20023;-90
2023/12/17 05:01:22;;;;;;;17.75;11.30;;;0.80;99.90;;;;;;4970941;28;20097;-90
2023/12/17 05:03:48;;;;;;;20.67;12.43;;;0.80;99.90;;;;;;4973983;28;20097;-88
2023/12/17 05:06:13;;;;;;;20.75;12.52;;;0.80;99.90;;;;;;4972501;28;20034;-89
2023/12/17 05:08:39;;;;;;;18.23;12.38;;;0.80;99.90;;;;;;4964895;28;20054;-90
2023/12/17 05:11:07;;;;;;;21.52;12.13;;;0.80;99.90;;;;;;4951712;28;20023;-90
2023/12/17 05:13:36;;;;;;;18.70;12.45;;;0.80;99.90;;;;;;4958596;29;20023;-89
2023/12/17 05:16:04;;;;;;;17.58;11.35;;;0.80;99.90;;;;;;4964964;28;20083;-90
2023/12/17 05:18:29;;;;;;;18.25;12.05;;;0.80;99.90;;;;;;4944693;29;20028;-89
2023/12/17 05:20:55;;;;;;;22.10;11.32;;;0.80;99.90;;;;;;4964440;28;20031;-91
2023/12/17 05:23:21;;;;;;;16.98;11.90;;;0.80;99.90;;;;;;4948947;29;20042;-90
2023/12/17 05:25:47;;;;;;;15.50;11.20;;;0.80;99.90;;;;;;4963592;28;20027;-90
2023/12/17 05:28:12;;;;;;;18.55;11.27;;;0.80;99.90;;;;;;4967469;28;20145;-89
2023/12/17 05:30:38;;;;;;;17.95;10.98;;;0.70;99.90;;;;;;4963330;28;20035;-90
2023/12/17 05:33:04;;;;;;;22.38;15.70;;;0.70;99.90;;;;;;4971907;28;20426;-90
2023/12/17 05:35:30;;;;;;;17.00;11.35;;;0.80;99.90;;;;;;4954420;29;20514;-89
2023/12/17 05:37:55;;;;;;;18.65;10.93;;;0.70;99.90;;;;;;4963455;28;20083;-89
2023/12/17 05:40:21;;;;;;;19.58;10.40;;;0.70;99.90;;;;;;4957153;28;20024;-90
2023/12/17 05:42:47;;;;;;;13.85;9.68;;;0.80;99.90;;;;;;4961959;28;20039;-89
2023/12/17 05:45:13;;;;;;;22.42;14.80;;;0.70;99.90;;;;;;4962778;28;20212;-92
2023/12/17 05:47:39;;;;;;;17.02;11.00;;;0.70;99.90;;;;;;4946531;28;20034;-89
2023/12/17 05:50:07;;;;;;;16.08;12.70;;;0.60;99.90;;;;;;4965190;28;20038;-91
2023/12/17 05:52:33;;;;;;;17.80;12.30;;;0.70;99.90;;;;;;4962877;28;20023;-89
2023/12/17 05:54:59;;;;;;;18.73;11.65;;;0.70;99.90;;;;;;4970667;28;20035;-88
2023/12/17 05:57:25;;;;;;;18.75;11.57;;;0.70;99.90;;;;;;4965573;28;20268;-90
2023/12/17 05:59:50;;;;;;;18.00;10.55;;;0.70;99.90;;;;;;4963014;28;20045;-89
2023/12/17 06:02:16;;;;;;;19.05;11.05;;;0.70;99.90;;;;;;4969689;28;20042;-90
2023/12/17 06:04:41;;;;;;;18.17;12.10;;;0.70;99.90;;;;;;4979859;28;20069;-90
2023/12/17 06:07:09;;;;;;;20.10;11.68;;;0.70;99.90;;;;;;4967996;28;20037;-91
2023/12/17 06:09:35;;;;;;;21.38;11.93;;;0.70;99.90;;;;;;4960351;28;20040;-89
2023/12/17 06:12:00;;;;;;;22.23;12.93;;;0.70;99.90;;;;;;4968080;28;20086;-90
2023/12/17 06:14:28;;;;;;;23.35;11.85;;;0.60;99.90;;;;;;4975372;28;20045;-91
2023/12/17 06:16:53;;;;;;;22.30;12.68;;;0.60;99.90;;;;;;4970211;28;20034;-91
2023/12/17 06:19:19;;;;;;;29.70;15.25;;;0.60;99.90;;;;;;4967636;28;20051;-90
2023/12/17 06:21:45;;;;;;;31.15;14.32;;;0.60;99.90;;;;;;4966736;28;20016;-88
2023/12/17 06:24:10;;;;;;;52.42;14.55;;;0.60;99.90;;;;;;4947250;29;20099;-90
2023/12/17 06:26:36;;;;;;;79.00;17.38;;;0.60;99.90;;;;;;4973218;28;20107;-89
2023/12/17 06:29:02;;;;;;;34.45;16.05;;;0.60;99.90;;;;;;4973005;28;20027;-90
2023/12/17 06:31:28;;;;;;;33.33;14.85;;;0.60;99.90;;;;;;4973058;28;20027;-91
2023/12/17 06:33:54;;;;;;;53.78;17.38;;;0.60;99.90;;;;;;4955098;28;20023;-90
2023/12/17 06:36:20;;;;;;;33.10;15.02;;;0.60;99.90;;;;;;4973419;28;20030;-90
2023/12/17 06:38:46;;;;;;;48.88;17.45;;;0.50;99.90;;;;;;4967146;28;20396;-91
2023/12/17 06:41:12;;;;;;;45.60;16.13;;;0.50;99.90;;;;;;4966858;28;20392;-89
2023/12/17 06:43:41;;;;;;;55.92;19.33;;;0.50;99.90;;;;;;4968005;28;20019;-91
2023/12/17 06:46:07;;;;;;;45.25;15.10;;;0.50;99.90;;;;;;4955109;29;20032;-90
2023/12/17 06:48:36;;;;;;;32.97;16.23;;;0.50;99.90;;;;;;4963346;28;20087;-89
2023/12/17 06:51:03;;;;;;;43.03;18.13;;;0.60;99.90;;;;;;4950124;29;20391;-90
2023/12/17 06:53:31;;;;;;;47.35;16.95;;;0.50;99.90;;;;;;4957093;28;20049;-89
2023/12/17 06:55:56;;;;;;;57.45;18.13;;;0.50;99.90;;;;;;4953233;29;20023;-90
2023/12/17 06:58:22;;;;;;;37.92;16.50;;;0.50;99.90;;;;;;4966317;28;20182;-89
2023/12/17 07:00:48;;;;;;;32.45;15.20;;;0.50;99.90;;;;;;4970235;28;20035;-91
2023/12/17 07:03:18;;;;;;;51.72;16.75;;;0.50;99.90;;;;;;4973057;28;20461;-91
2023/12/17 07:05:44;;;;;;;34.50;15.52;;;0.50;99.90;;;;;;4968272;28;20058;-90
2023/12/17 07:08:09;;;;;;;26.50;14.10;;;0.50;99.90;;;;;;4969255;28;20031;-89
2023/12/17 07:10:35;;;;;;;36.40;14.95;;;0.50;99.90;;;;;;4968376;28;20086;-89
2023/12/17 07:13:01;;;;;;;32.83;14.95;;;0.50;99.90;;;;;;4964527;28;20024;-89
2023/12/17 07:15:29;;;;;;;24.35;15.68;;;0.50;99.90;;;;;;4962787;28;20031;-92
2023/12/17 07:17:55;;;;;;;;;;;0.50;99.90;;;;;;4953948;28;20082;-89
2023/12/17 07:20:20;;;;;;;34.10;15.48;;;0.60;99.90;;;;;;4973955;28;19910;-90
2023/12/17 07:22:48;;;;;;;29.10;17.75;;;0.50;99.90;;;;;;4964979;28;20046;-89
2023/12/17 07:25:14;;;;;;;27.92;15.82;;;0.50;99.90;;;;;;4962630;28;20042;-91
2023/12/17 07:27:39;;;;;;;33.55;16.98;;;0.50;99.90;;;;;;4952112;28;20058;-89
2023/12/17 07:30:06;;;;;;;24.77;14.07;;;0.50;99.90;;;;;;4945220;29;20033;-89
2023/12/17 07:32:31;;;;;;;25.17;14.23;;;0.50;99.90;;;;;;4966200;28;20078;-89
2023/12/17 07:34:57;;;;;;;41.30;19.38;;;0.40;99.90;;;;;;4952872;28;20464;-88
2023/12/17 07:37:23;;;;;;;38.72;17.95;;;0.40;99.90;;;;;;4970095;28;20038;-88
2023/12/17 07:39:48;;;;;;;34.33;18.30;;;0.40;99.90;;;;;;4969900;28;20051;-89
2023/12/17 07:42:14;;;;;;;27.92;15.43;;;0.40;99.90;;;;;;4977614;28;20038;-89
2023/12/17 07:44:39;;;;;;;28.58;16.38;;;0.40;99.90;;;;;;4971455;28;20065;-90
2023/12/17 07:47:05;;;;;;;97.40;43.00;;;0.40;99.90;;;;;;4966943;28;20023;-89
2023/12/17 07:49:31;;;;;;;29.60;16.15;;;0.30;99.90;;;;;;4970921;28;20046;-90
2023/12/17 07:51:57;;;;;;;33.15;18.05;;;0.40;99.90;;;;;;4971302;28;20027;-90
2023/12/17 07:54:23;;;;;;;31.05;15.60;;;0.30;99.90;;;;;;4966707;28;20486;-90
2023/12/17 07:56:49;;;;;;;47.28;18.50;;;0.30;99.90;;;;;;4964022;28;20016;-90
2023/12/17 07:59:15;;;;;;;55.58;32.72;;;0.30;99.90;;;;;;4947138;29;20083;-89
2023/12/17 08:01:40;;;;;;;35.97;18.52;;;0.30;99.90;;;;;;4965994;28;20034;-91
2023/12/17 08:04:09;;;;;;;103.85;51.35;;;0.30;99.90;;;;;;4965744;28;20050;-92
2023/12/17 08:06:35;;;;;;;49.38;21.20;;;0.30;99.90;;;;;;4961523;28;20047;-91
2023/12/17 08:09:03;;;;;;;33.47;20.10;;;0.30;99.90;;;;;;4963636;28;20383;-91
2023/12/17 08:11:32;;;;;;;24.30;14.90;;;0.30;99.90;;;;;;4979579;28;20025;-90
2023/12/17 08:14:00;;;;;;;28.58;15.48;;;0.30;99.90;;;;;;4957174;28;20043;-89
2023/12/17 08:16:26;;;;;;;26.65;15.88;;;0.30;99.90;;;;;;4965286;28;20031;-91
2023/12/17 08:18:52;;;;;;;27.52;14.95;;;0.40;99.90;;;;;;4966161;28;20024;-91
2023/12/17 08:21:17;;;;;;;31.40;17.35;;;0.40;99.90;;;;;;4958384;28;20031;-91
2023/12/17 08:23:43;;;;;;;25.60;14.95;;;0.40;99.90;;;;;;4958350;28;20035;-90
2023/12/17 08:26:11;;;;;;;32.58;16.15;;;0.40;99.90;;;;;;4959709;28;20035;-92
2023/12/17 08:28:39;;;;;;;27.88;16.02;;;0.40;99.90;;;;;;4959704;28;20083;-90
2023/12/17 08:31:09;;;;;;;29.05;16.45;;;0.50;99.90;;;;;;4961009;28;20023;-92
2023/12/17 08:33:38;;;;;;;32.17;16.75;;;0.50;99.90;;;;;;4968905;28;20030;-91
2023/12/17 08:36:05;;;;;;;29.10;14.95;;;0.50;99.90;;;;;;4954794;28;20031;-90
2023/12/17 08:38:31;;;;;;;24.70;14.75;;;0.50;99.90;;;;;;4965292;28;20023;-90
2023/12/17 08:40:56;;;;;;;33.03;17.55;;;0.50;99.90;;;;;;4970070;28;20034;-90
2023/12/17 08:43:22;;;;;;;30.85;16.75;;;0.50;99.90;;;;;;4970509;28;20031;-90
2023/12/17 08:45:49;;;;;;;36.17;17.55;;;0.50;99.90;;;;;;4948789;29;20027;-90
2023/12/17 08:48:15;;;;;;;55.25;19.00;;;0.60;99.90;;;;;;4956729;28;20028;-90
2023/12/17 08:50:40;;;;;;;32.53;16.55;;;0.60;99.90;;;;;;4949932;28;20038;-92
2023/12/17 08:53:06;;;;;;;30.17;15.73;;;0.70;99.90;;;;;;4967720;28;20031;-90
2023/12/17 08:55:31;;;;;;;32.33;16.60;;;0.70;99.90;;;;;;4971221;28;20474;-89
2023/12/17 08:57:57;;;;;;;27.45;14.95;;;0.80;99.90;;;;;;4979933;28;20035;-90
2023/12/17 09:00:23;;;;;;;29.20;16.58;;;0.90;99.90;;;;;;4968305;28;20030;-90
2023/12/17 09:02:52;;;;;;;41.10;18.02;;;0.90;99.90;;;;;;4963195;28;20126;-91
2023/12/17 09:05:18;;;;;;;28.15;16.02;;;0.80;99.90;;;;;;4944288;29;20086;-91
2023/12/17 09:07:47;;;;;;;31.20;16.55;;;0.90;99.90;;;;;;4944792;29;20026;-91
2023/12/17 09:10:16;;;;;;;32.28;17.83;;;1.00;99.90;;;;;;4961657;28;20034;-91
2023/12/17 09:12:41;;;;;;;36.78;17.70;;;1.00;99.90;;;;;;4960955;28;20019;-92
2023/12/17 09:15:07;;;;;;;32.75;16.77;;;1.00;99.90;;;;;;4962670;28;20658;-92
2023/12/17 09:17:36;;;;;;;31.02;17.42;;;1.00;99.90;;;;;;4967845;28;20035;-93
2023/12/17 09:20:02;;;;;;;32.00;17.70;;;1.10;99.90;;;;;;4970809;28;20032;-92
2023/12/17 09:22:27;;;;;;;35.63;16.15;;;1.20;99.90;;;;;;4968607;28;20026;-91
2023/12/17 09:24:53;;;;;;;33.35;17.83;;;1.30;99.90;;;;;;4972503;28;20116;-90
2023/12/17 09:27:19;;;;;;;42.25;21.90;;;1.30;99.90;;;;;;4949443;29;20065;-91
2023/12/17 09:29:45;;;;;;;33.38;17.50;;;1.40;99.90;;;;;;4970634;28;20446;-92
2023/12/17 09:32:10;;;;;;;33.80;17.17;;;1.40;99.90;;;;;;4983788;28;20034;-91
2023/12/17 09:34:36;;;;;;;37.40;18.63;;;1.50;99.90;;;;;;4965541;28;20216;-91
2023/12/17 09:37:01;;;;;;;40.05;19.17;;;1.60;99.90;;;;;;4950435;28;20043;-91
2023/12/17 09:39:27;;;;;;;33.92;16.63;;;1.60;99.90;;;;;;4959487;28;20027;-93
2023/12/17 09:41:53;;;;;;;33.85;17.20;;;1.90;99.90;;;;;;4956391;28;20061;-91
2023/12/17 09:44:19;;;;;;;29.75;16.10;;;1.80;99.90;;;;;;4972568;28;20082;-91
2023/12/17 09:46:44;;;;;;;30.20;16.73;;;1.80;99.90;;;;;;4965752;28;20027;-91
2023/12/17 09:49:10;;;;;;;27.80;15.38;;;1.80;99.90;;;;;;4963674;28;20509;-90
2023/12/17 09:51:37;;;;;;;31.45;15.73;;;1.70;99.90;;;;;;4966218;28;20034;-90
2023/12/17 09:54:05;;;;;;;32.13;17.73;;;1.80;99.90;;;;;;4943415;29;20024;-90
2023/12/17 09:56:30;;;;;;;25.80;13.68;;;1.80;99.90;;;;;;4953010;28;20020;-89
2023/12/17 09:58:56;;;;;;;26.27;14.10;;;1.90;99.90;;;;;;4959498;28;20058;-91
2023/12/17 10:01:22;;;;;;;30.65;15.50;;;1.80;99.90;;;;;;4943515;28;20105;-90
2023/12/17 10:03:48;;;;;;;30.27;15.68;;;1.80;99.90;;;;;;4959378;28;20130;-91
2023/12/17 10:06:13;;;;;;;24.33;15.25;;;1.80;99.90;;;;;;4966402;28;20414;-92
2023/12/17 10:08:39;;;;;;;27.13;15.80;;;1.90;99.90;;;;;;4947891;29;20024;-91
2023/12/17 10:11:05;;;;;;;29.90;14.80;;;1.90;99.90;;;;;;4971213;28;20042;-91
2023/12/17 10:13:30;;;;;;;28.13;16.20;;;1.90;99.90;;;;;;4948249;29;20662;-93
2023/12/17 10:15:56;;;;;;;30.10;15.43;;;2.00;99.90;;;;;;4966194;28;20521;-92
2023/12/17 10:18:23;;;;;;;27.10;16.65;;;2.10;99.90;;;;;;4969184;28;20415;-92
2023/12/17 10:20:52;;;;;;;27.58;16.15;;;2.20;99.90;;;;;;4971146;28;20023;-91
2023/12/17 10:23:18;;;;;;;23.50;13.85;;;2.30;99.90;;;;;;4966025;28;20325;-91
2023/12/17 10:25:44;;;;;;;29.83;15.05;;;2.30;99.90;;;;;;4946918;28;20501;-93
2023/12/17 10:28:11;;;;;;;26.05;15.27;;;2.40;99.90;;;;;;4975784;28;20066;-91
2023/12/17 10:30:37;;;;;;;24.08;14.82;;;2.40;99.90;;;;;;4961273;28;20023;-93
2023/12/17 10:33:11;;;;;;;25.98;14.63;;;2.50;99.90;;;;;;4949488;29;20247;-92
2023/12/17 10:35:37;;;;;;;23.75;14.05;;;2.60;99.90;;;;;;4965516;28;20020;-90
2023/12/17 10:38:05;;;;;;;26.95;16.13;;;2.80;99.90;;;;;;4964534;28;20085;-91
2023/12/17 10:40:33;;;;;;;24.08;16.65;;;3.00;99.90;;;;;;4948469;29;20393;-91
2023/12/17 10:43:02;;;;;;;23.35;14.35;;;3.10;99.90;;;;;;4947594;29;20086;-91
2023/12/17 10:45:30;;;;;;;25.50;12.93;;;3.20;99.90;;;;;;4959621;28;20027;-91
2023/12/17 10:47:57;;;;;;;20.25;12.70;;;3.30;99.90;;;;;;4950555;28;20051;-91
2023/12/17 10:50:24;;;;;;;20.30;12.57;;;3.40;99.90;;;;;;4965564;28;20034;-89
2023/12/17 10:52:50;;;;;;;21.63;12.32;;;3.40;99.90;;;;;;4963128;28;20034;-90
2023/12/17 10:55:20;;;;;;;17.25;11.63;;;3.70;99.90;;;;;;4938513;29;20517;-90
2023/12/17 10:58:12;;;;;;;15.45;10.32;;;3.80;99.90;;;;;;4960248;28;20026;-90
2023/12/17 11:00:39;;;;;;;18.85;12.25;;;3.70;99.90;;;;;;4955153;28;20030;-89
2023/12/17 11:03:07;;;;;;;18.15;11.15;;;3.60;99.90;;;;;;4946128;29;20099;-91
2023/12/17 11:05:32;;;;;;;19.10;13.10;;;3.50;99.90;;;;;;4964540;28;20023;-90
2023/12/17 11:07:58;;;;;;;18.75;11.05;;;3.60;99.90;;;;;;4964468;28;20037;-91
2023/12/17 11:10:36;;;;;;;21.58;12.15;;;3.70;99.90;;;;;;4970882;28;20082;-89
2023/12/17 11:13:02;;;;;;;16.75;11.65;;;3.60;99.90;;;;;;4967703;28;20022;-90
2023/12/17 11:15:33;;;;;;;14.60;10.55;;;3.40;99.90;;;;;;4939672;29;20031;-92
2023/12/17 11:17:59;;;;;;;16.70;11.52;;;3.50;99.90;;;;;;4970892;28;20054;-91
2023/12/17 11:20:40;;;;;;;17.75;11.77;;;3.50;99.90;;;;;;4971546;28;20031;-95
2023/12/17 11:23:06;;;;;;;21.38;13.05;;;3.50;99.90;;;;;;4975287;28;20057;-89
2023/12/17 11:25:34;;;;;;;16.73;11.93;;;3.60;99.90;;;;;;4967107;28;20024;-89
2023/12/17 11:28:00;;;;;;;19.83;12.25;;;3.60;99.90;;;;;;4970288;28;20027;-92
2023/12/17 11:30:31;;;;;;;18.80;11.80;;;3.50;99.90;;;;;;4970386;28;20119;-92
2023/12/17 11:32:59;;;;;;;20.88;11.75;;;3.40;99.90;;;;;;4977687;28;20022;-92
2023/12/17 11:35:28;;;;;;;;;;;3.30;99.90;;;;;;4976725;28;20094;-91
2023/12/17 11:37:55;;;;;;;17.95;10.63;;;3.50;99.90;;;;;;4947938;29;19906;-90
2023/12/17 11:40:21;;;;;;;20.13;11.73;;;3.40;99.90;;;;;;4960720;28;20572;-89
2023/12/17 11:43:00;;;;;;;18.38;11.30;;;3.30;99.90;;;;;;4975102;28;20034;-91
2023/12/17 11:45:47;;;;;;;16.60;10.38;;;3.30;99.90;;;;;;4969563;28;20027;-92
2023/12/17 11:48:19;;;;;;;22.58;11.40;;;3.40;99.90;;;;;;4950283;29;20036;-91
2023/12/17 11:50:59;;;;;;;18.20;11.63;;;3.40;99.90;;;;;;4981311;28;20069;-92
2023/12/17 11:53:26;;;;;;;18.58;11.10;;;3.50;99.90;;;;;;4977634;28;20019;-92
2023/12/17 11:55:59;;;;;;;16.42;9.98;;;3.50;99.90;;;;;;4948569;28;20047;-92
2023/12/17 11:58:25;;;;;;;18.42;12.43;;;3.50;99.90;;;;;;4952919;28;20035;-93
2023/12/17 12:01:12;;;;;;;19.60;12.55;;;3.50;99.90;;;;;;4965812;28;20038;-93
2023/12/17 12:03:39;;;;;;;21.95;12.82;;;3.60;99.90;;;;;;4952374;28;20039;-93
2023/12/17 12:06:10;;;;;;;19.67;11.75;;;3.70;99.90;;;;;;4957626;28;20165;-92
2023/12/17 12:08:37;;;;;;;18.60;11.45;;;3.90;99.90;;;;;;4955368;29;20074;-93
2023/12/17 12:11:06;;;;;;;18.23;11.32;;;4.10;99.90;;;;;;4965639;28;20294;-95
2023/12/17 12:13:45;;;;;;;19.08;12.93;;;4.00;99.90;;;;;;4943066;29;20027;-92
2023/12/17 12:16:12;;;;;;;18.25;11.73;;;4.00;99.90;;;;;;4939785;29;20044;-93
2023/12/17 12:18:38;;;;;;;19.40;12.80;;;4.30;99.90;;;;;;4957976;28;20027;-93
2023/12/17 12:21:16;;;;;;;24.77;13.10;;;4.30;99.90;;;;;;4965486;28;20058;-93
2023/12/17 12:23:52;;;;;;;17.95;11.90;;;4.70;99.90;;;;;;4956926;28;20024;-93
2023/12/17 12:26:18;;;;;;;20.38;11.68;;;5.40;99.90;;;;;;4952452;29;20104;-90
2023/12/17 12:28:50;;;;;;;15.80;11.38;;;6.00;98.20;;;;;;4943931;29;20079;-87
2023/12/17 12:31:16;;;;;;;18.63;11.80;;;6.20;94.00;;;;;;4954231;28;20046;-90
2023/12/17 12:33:55;;;;;;;19.83;12.95;;;6.70;92.40;;;;;;4962253;28;20040;-92
2023/12/17 12:36:21;;;;;;;16.45;10.73;;;6.80;92.60;;;;;;4961211;28;20023;-88
2023/12/17 12:39:04;;;;;;;17.67;10.73;;;6.60;94.30;;;;;;4958994;28;20023;-91
2023/12/17 12:41:30;;;;;;;17.92;11.77;;;6.90;89.70;;;;;;4952204;28;20597;-89